createdAt,value
2022-11-27T00:01:20.616Z,101880.60
2022-11-27T00:02:52.865Z,101876.80
2022-11-27T00:04:24.790Z,101874.20
2022-11-27T00:06:01.627Z,101873.80
2022-11-27T00:07:35.235Z,101869.40
2022-11-27T00:09:14.126Z,101858.40
2022-11-27T00:10:46.004Z,101856.40
2022-11-27T00:12:17.792Z,101860.60
2022-11-27T00:13:52.032Z,101860.80
2022-11-27T00:15:23.860Z,101855.20
2022-11-27T00:16:55.731Z,101852.40
2022-11-27T00:18:27.582Z,101849.00
2022-11-27T00:19:59.507Z,101850.80
2022-11-27T00:21:35.610Z,101842.80
2022-11-27T00:23:08.280Z,101842.40
2022-11-27T00:24:40.868Z,101844.00
2022-11-27T00:26:14.614Z,101844.60
2022-11-27T00:27:46.625Z,101848.20
2022-11-27T00:29:18.975Z,101846.80
2022-11-27T00:30:50.801Z,101846.40
2022-11-27T00:32:25.983Z,101843.80
2022-11-27T00:34:17.754Z,101842.80
2022-11-27T00:35:49.503Z,101840.40
2022-11-27T00:37:21.548Z,101838.40
2022-11-27T00:38:56.460Z,101837.60
2022-11-27T00:40:28.429Z,101836.00
2022-11-27T00:42:00.350Z,101840.60
2022-11-27T00:43:43.252Z,101835.00
2022-11-27T00:45:18.082Z,101834.20
2022-11-27T00:46:50.160Z,101834.20
2022-11-27T00:48:23.440Z,101832.00
2022-11-27T00:49:55.337Z,101834.40
2022-11-27T00:51:29.826Z,101831.60
2022-11-27T00:53:02.764Z,101833.80
2022-11-27T00:54:34.830Z,101833.80
2022-11-27T00:56:07.511Z,101833.00
2022-11-27T00:57:39.337Z,101830.40
2022-11-27T00:59:11.937Z,101825.80
2022-11-27T01:00:43.712Z,101837.20
2022-11-27T01:02:15.761Z,101834.00
2022-11-27T01:03:49.202Z,101833.80
2022-11-27T01:05:21.743Z,101837.20
2022-11-27T01:06:53.577Z,101836.60
2022-11-27T01:08:25.445Z,101833.80
2022-11-27T01:09:59.950Z,101833.80
2022-11-27T01:11:35.431Z,101829.20
2022-11-27T01:13:07.983Z,101833.00
2022-11-27T01:14:40.601Z,101836.60
2022-11-27T01:16:24.144Z,101838.80
2022-11-27T01:17:56.094Z,101837.20
2022-11-27T01:19:28.032Z,101840.40
2022-11-27T01:21:00.369Z,101842.40
2022-11-27T01:22:35.414Z,101840.40
2022-11-27T01:24:08.411Z,101832.00
2022-11-27T01:25:42.180Z,101826.20
2022-11-27T01:27:15.374Z,101828.00
2022-11-27T01:28:52.680Z,101824.00
2022-11-27T01:30:24.561Z,101820.80
2022-11-27T01:31:56.616Z,101825.60
2022-11-27T01:33:28.672Z,101817.80
2022-11-27T01:35:02.649Z,101816.60
2022-11-27T01:36:36.098Z,101815.40
2022-11-27T01:38:08.498Z,101815.20
2022-11-27T01:39:40.402Z,101816.40
2022-11-27T01:41:18.774Z,101814.20
2022-11-27T01:42:50.814Z,101814.00
2022-11-27T01:44:29.933Z,101810.80
2022-11-27T01:46:02.478Z,101804.40
2022-11-27T01:47:46.975Z,101796.00
2022-11-27T01:50:06.272Z,101794.20
2022-11-27T01:51:58.152Z,101793.20
2022-11-27T01:53:33.335Z,101791.60
2022-11-27T01:55:32.733Z,101794.80
2022-11-27T01:57:16.799Z,101797.00
2022-11-27T01:58:55.284Z,101792.60
2022-11-27T02:00:27.685Z,101793.60
2022-11-27T02:02:01.697Z,101782.60
2022-11-27T02:03:34.321Z,101781.00
2022-11-27T02:05:08.788Z,101783.00
2022-11-27T02:06:43.478Z,101780.20
2022-11-27T02:08:17.944Z,101781.40
2022-11-27T02:09:50.505Z,101782.20
2022-11-27T02:12:06.655Z,101779.40
2022-11-27T02:14:22.931Z,101781.20
2022-11-27T02:16:21.066Z,101780.00
2022-11-27T02:18:12.722Z,101765.00
2022-11-27T02:20:03.699Z,101767.80
2022-11-27T02:22:03.685Z,101762.60
2022-11-27T02:23:52.699Z,101756.60
2022-11-27T02:25:51.610Z,101751.60
2022-11-27T02:27:57.797Z,101748.20
2022-11-27T02:29:34.937Z,101746.60
2022-11-27T02:31:38.918Z,101751.60
2022-11-27T02:33:16.025Z,101752.20
2022-11-27T02:35:26.572Z,101748.00
2022-11-27T02:37:17.349Z,101754.60
2022-11-27T02:39:03.162Z,101753.80
2022-11-27T02:40:42.753Z,101741.40
2022-11-27T02:42:22.915Z,101740.60
2022-11-27T02:44:01.008Z,101737.00
2022-11-27T02:45:47.606Z,101740.60
2022-11-27T02:47:20.990Z,101740.20
2022-11-27T02:49:01.862Z,101738.40
2022-11-27T02:50:39.020Z,101740.80
2022-11-27T02:52:14.823Z,101732.20
2022-11-27T02:54:05.175Z,101722.20
2022-11-27T02:55:43.289Z,101721.80
2022-11-27T02:57:18.856Z,101716.60
2022-11-27T02:58:56.555Z,101718.20
2022-11-27T03:00:31.013Z,101722.00
2022-11-27T03:02:13.137Z,101717.60
2022-11-27T03:03:51.947Z,101711.80
2022-11-27T03:05:31.373Z,101710.00
2022-11-27T03:07:12.750Z,101706.80
2022-11-27T03:09:19.421Z,101705.20
2022-11-27T03:11:03.446Z,101704.40
2022-11-27T03:12:35.644Z,101705.80
2022-11-27T03:14:11.994Z,101700.60
2022-11-27T03:16:04.638Z,101695.40
2022-11-27T03:18:01.557Z,101693.40
2022-11-27T03:19:45.312Z,101698.80
2022-11-27T03:21:43.516Z,101687.80
2022-11-27T03:23:15.359Z,101685.00
2022-11-27T03:24:49.971Z,101685.40
2022-11-27T03:26:21.787Z,101680.00
2022-11-27T03:28:00.858Z,101670.60
2022-11-27T03:29:51.730Z,101668.20
2022-11-27T03:31:25.808Z,101664.60
2022-11-27T03:32:57.994Z,101668.80
2022-11-27T03:34:32.148Z,101671.60
2022-11-27T03:36:17.457Z,101672.00
2022-11-27T03:37:51.179Z,101672.40
2022-11-27T03:39:26.305Z,101681.20
2022-11-27T03:41:20.691Z,101675.40
2022-11-27T03:42:55.410Z,101676.80
2022-11-27T03:44:49.043Z,101672.60
2022-11-27T03:46:42.260Z,101675.20
2022-11-27T03:48:38.837Z,101671.40
2022-11-27T03:50:44.797Z,101677.20
2022-11-27T03:52:44.968Z,101678.40
2022-11-27T03:54:51.062Z,101678.80
2022-11-27T03:56:45.259Z,101678.20
2022-11-27T03:58:40.733Z,101675.20
2022-11-27T04:00:16.301Z,101676.40
2022-11-27T04:01:48.697Z,101676.00
2022-11-27T04:03:29.334Z,101679.40
2022-11-27T04:05:01.368Z,101678.40
2022-11-27T04:06:33.302Z,101678.60
2022-11-27T04:08:05.623Z,101676.00
2022-11-27T04:09:37.556Z,101669.60
2022-11-27T04:11:09.647Z,101666.60
2022-11-27T04:12:42.040Z,101660.00
2022-11-27T04:14:13.884Z,101656.20
2022-11-27T04:15:46.021Z,101648.20
2022-11-27T04:17:17.898Z,101641.00
2022-11-27T04:18:51.029Z,101641.40
2022-11-27T04:20:22.988Z,101641.60
2022-11-27T04:21:55.136Z,101638.60
2022-11-27T04:23:28.218Z,101635.00
2022-11-27T04:25:01.005Z,101630.60
2022-11-27T04:26:32.955Z,101629.20
2022-11-27T04:28:04.924Z,101623.20
2022-11-27T04:29:36.768Z,101621.40
2022-11-27T04:31:08.832Z,101617.40
2022-11-27T04:32:41.269Z,101620.20
2022-11-27T04:34:13.112Z,101613.40
2022-11-27T04:35:44.888Z,101611.00
2022-11-27T04:37:17.289Z,101607.60
2022-11-27T04:38:50.641Z,101601.60
2022-11-27T04:40:23.651Z,101602.20
2022-11-27T04:41:55.429Z,101599.80
2022-11-27T04:43:27.230Z,101600.60
2022-11-27T04:45:00.522Z,101596.40
2022-11-27T04:46:33.842Z,101592.40
2022-11-27T04:48:06.421Z,101591.60
2022-11-27T04:49:38.307Z,101583.60
2022-11-27T04:51:13.002Z,101586.00
2022-11-27T04:52:44.773Z,101589.60
2022-11-27T04:54:18.996Z,101593.00
2022-11-27T04:55:53.067Z,101596.60
2022-11-27T04:57:24.929Z,101593.00
2022-11-27T04:58:56.878Z,101590.80
2022-11-27T05:00:29.019Z,101582.80
2022-11-27T05:02:01.107Z,101573.80
2022-11-27T05:03:33.175Z,101563.60
2022-11-27T05:05:06.721Z,101559.40
2022-11-27T05:06:38.623Z,101553.80
2022-11-27T05:08:10.566Z,101553.20
2022-11-27T05:09:42.648Z,101551.60
2022-11-27T05:11:17.611Z,101553.20
2022-11-27T05:12:49.658Z,101549.80
2022-11-27T05:14:24.354Z,101552.40
2022-11-27T05:15:57.396Z,101553.80
2022-11-27T05:17:29.288Z,101558.80
2022-11-27T05:19:01.140Z,101552.00
2022-11-27T05:20:33.098Z,101552.20
2022-11-27T05:22:06.821Z,101552.40
2022-11-27T05:23:39.160Z,101554.40
2022-11-27T05:25:11.125Z,101553.80
2022-11-27T05:26:43.654Z,101552.00
2022-11-27T05:28:15.444Z,101552.20
2022-11-27T05:29:47.828Z,101548.00
2022-11-27T05:31:21.617Z,101552.20
2022-11-27T05:32:53.347Z,101551.00
2022-11-27T05:34:25.125Z,101551.20
2022-11-27T05:35:57.018Z,101543.80
2022-11-27T05:37:28.817Z,101545.20
2022-11-27T05:39:03.417Z,101540.80
2022-11-27T05:40:36.907Z,101543.40
2022-11-27T05:42:08.765Z,101543.40
2022-11-27T05:43:41.906Z,101537.00
2022-11-27T05:45:16.620Z,101536.80
2022-11-27T05:46:50.043Z,101537.80
2022-11-27T05:48:22.059Z,101538.00
2022-11-27T05:49:53.897Z,101540.40
2022-11-27T05:51:27.129Z,101539.80
2022-11-27T05:52:59.467Z,101535.20
2022-11-27T05:54:33.947Z,101534.20
2022-11-27T05:56:12.912Z,101534.60
2022-11-27T05:57:47.018Z,101534.00
2022-11-27T05:59:19.113Z,101531.20
2022-11-27T06:00:54.518Z,101526.60
2022-11-27T06:02:29.562Z,101530.20
2022-11-27T06:04:02.788Z,101530.60
2022-11-27T06:05:40.207Z,101530.60
2022-11-27T06:07:12.626Z,101534.80
2022-11-27T06:08:46.594Z,101533.00
2022-11-27T06:10:22.713Z,101535.20
2022-11-27T06:11:54.740Z,101531.60
2022-11-27T06:13:26.681Z,101528.40
2022-11-27T06:15:00.995Z,101526.40
2022-11-27T06:16:33.069Z,101520.80
2022-11-27T06:18:07.021Z,101521.00
2022-11-27T06:19:38.939Z,101523.80
2022-11-27T06:21:20.646Z,101519.40
2022-11-27T06:22:53.551Z,101513.60
2022-11-27T06:24:25.632Z,101512.40
2022-11-27T06:25:57.639Z,101517.20
2022-11-27T06:27:36.594Z,101515.20
2022-11-27T06:29:10.104Z,101513.80
2022-11-27T06:30:45.515Z,101512.00
2022-11-27T06:32:22.717Z,101505.00
2022-11-27T06:34:07.172Z,101504.20
2022-11-27T06:35:40.766Z,101504.60
2022-11-27T06:37:16.188Z,101506.40
2022-11-27T06:38:52.521Z,101508.80
2022-11-27T06:42:18.199Z,101506.60
2022-11-27T06:43:51.721Z,101501.40
2022-11-27T06:45:36.023Z,101503.40
2022-11-27T06:47:10.885Z,101501.80
2022-11-27T06:48:46.042Z,101507.60
2022-11-27T06:50:20.119Z,101505.60
2022-11-27T06:52:06.305Z,101504.00
2022-11-27T12:42:12.528Z,101073.20
2022-11-27T12:43:52.255Z,101063.00
2022-11-27T12:45:51.145Z,101053.60
2022-11-27T12:47:49.492Z,101055.60
2022-11-27T12:49:31.915Z,101053.20
2022-11-27T12:51:12.076Z,101064.20
2022-11-27T12:52:57.932Z,101071.60
2022-11-27T12:54:40.551Z,101077.80
2022-11-27T12:56:21.014Z,101076.60
2022-11-27T12:58:28.549Z,101081.40
2022-11-27T13:00:20.761Z,101069.80
2022-11-27T13:02:14.642Z,101071.80
2022-11-27T13:40:22.052Z,101042.60
2022-11-27T13:42:11.349Z,101037.40
2022-11-27T13:43:46.758Z,101039.80
2022-11-27T13:45:30.204Z,101033.80
2022-11-27T13:47:20.124Z,101032.60
2022-11-27T13:49:03.654Z,101037.60
2022-11-27T13:50:45.386Z,101033.80
2022-11-27T13:52:21.302Z,101036.80
2022-11-27T13:53:53.303Z,101032.20
2022-11-27T13:55:30.703Z,101024.20
2022-11-27T13:57:34.525Z,101021.60
2022-11-27T13:59:23.350Z,101027.80
2022-11-27T14:00:55.560Z,101025.40
2022-11-27T14:02:50.328Z,101020.20
2022-11-27T14:04:22.074Z,101021.60
2022-11-27T14:05:54.625Z,101015.40
2022-11-27T14:07:41.299Z,101016.40
2022-11-27T14:09:13.434Z,101021.00
2022-11-27T14:11:04.626Z,101013.60
2022-11-27T14:12:37.378Z,101013.40
2022-11-27T14:14:22.069Z,101011.20
2022-11-27T14:16:02.283Z,101007.80
2022-11-27T14:17:48.695Z,101014.00
2022-11-27T14:19:36.320Z,101014.40
2022-11-27T14:21:08.847Z,101018.60
2022-11-27T14:23:12.481Z,101024.60
2022-11-27T14:24:46.045Z,101023.40
2022-11-27T14:26:24.854Z,101022.20
2022-11-27T14:28:05.817Z,101025.00
2022-11-27T14:29:37.787Z,101029.00
2022-11-27T14:31:29.579Z,101028.80
2022-11-27T14:33:05.683Z,101022.80
2022-11-27T14:34:38.601Z,101023.00
2022-11-27T14:36:32.541Z,101022.20
2022-11-27T14:38:14.197Z,101020.80
2022-11-27T14:39:45.920Z,101025.80
2022-11-27T14:41:23.032Z,101023.80
2022-11-27T14:43:24.146Z,101019.60
2022-11-27T14:45:10.017Z,101013.60
2022-11-27T14:46:42.036Z,101009.60
2022-11-27T14:48:25.143Z,101010.60
2022-11-27T14:49:59.499Z,101000.80
2022-11-27T14:51:37.415Z,100991.40
2022-11-27T14:53:12.299Z,100984.20
2022-11-27T14:54:44.813Z,100982.20
2022-11-27T14:56:18.492Z,100983.60
2022-11-27T14:57:51.283Z,101005.60
2022-11-27T14:59:25.502Z,101026.60
2022-11-27T15:01:05.641Z,101026.40
2022-11-27T15:02:37.549Z,101021.20
2022-11-27T15:04:46.603Z,101016.80
2022-11-27T15:06:20.168Z,101012.20
2022-11-27T15:07:57.139Z,101009.40
2022-11-27T18:19:10.212Z,100752.40
2022-11-27T18:20:42.334Z,100746.60
2022-11-27T18:22:14.550Z,100740.40
2022-11-27T18:24:21.469Z,100738.20
2022-11-27T18:25:47.667Z,100740.20
